createdAt,value
2023-03-02T00:01:42.284Z,68.22
2023-03-02T00:04:38.607Z,68.50
2023-03-02T00:07:32.220Z,69.47
2023-03-02T00:10:17.537Z,68.51
2023-03-02T00:13:03.293Z,68.63
2023-03-02T00:16:08.756Z,68.51
2023-03-02T00:18:54.993Z,69.15
2023-03-02T00:21:41.192Z,69.13
2023-03-02T00:24:26.883Z,69.10
2023-03-02T00:27:12.809Z,68.18
2023-03-02T00:29:58.560Z,69.10
2023-03-02T00:32:45.712Z,69.09
2023-03-02T00:35:31.339Z,68.73
2023-03-02T00:38:17.248Z,69.55
2023-03-02T00:41:02.567Z,70.20
2023-03-02T00:43:48.862Z,70.27
2023-03-02T00:46:35.244Z,70.96
2023-03-02T00:49:20.860Z,70.16
2023-03-02T00:52:06.469Z,68.82
2023-03-02T00:54:52.205Z,69.16
2023-03-02T00:57:37.824Z,68.96
2023-03-02T01:00:24.408Z,69.87
2023-03-02T01:03:10.209Z,69.81
2023-03-02T01:05:56.325Z,69.51
2023-03-02T01:08:41.526Z,70.06
2023-03-02T01:11:27.243Z,69.54
2023-03-02T01:14:12.761Z,69.76
2023-03-02T01:16:58.689Z,70.32
2023-03-02T01:19:44.614Z,69.98
2023-03-02T01:22:30.171Z,70.19
2023-03-02T01:25:16.065Z,70.33
2023-03-02T01:28:01.652Z,70.09
2023-03-02T01:30:47.685Z,70.56
2023-03-02T01:33:33.300Z,70.45
2023-03-02T01:36:19.588Z,70.68
2023-03-02T01:39:05.196Z,70.38
2023-03-02T01:41:52.707Z,69.75
2023-03-02T01:44:51.231Z,69.80
2023-03-02T01:47:39.974Z,69.50
2023-03-02T01:50:32.850Z,68.96
2023-03-02T01:53:18.745Z,69.19
2023-03-02T01:56:05.731Z,69.04
2023-03-02T01:58:54.692Z,69.43
2023-03-02T02:01:44.364Z,69.29
2023-03-02T02:04:32.300Z,69.54
2023-03-02T02:07:18.527Z,69.28
2023-03-02T02:10:05.292Z,69.73
2023-03-02T02:12:51.082Z,69.58
2023-03-02T02:15:38.539Z,68.88
2023-03-02T02:18:25.964Z,69.06
2023-03-02T02:21:11.830Z,68.92
2023-03-02T02:24:22.545Z,68.18
2023-03-02T02:27:08.442Z,68.45
2023-03-02T02:29:55.140Z,68.26
2023-03-02T02:32:43.459Z,68.55
2023-03-02T02:35:33.340Z,68.27
2023-03-02T02:38:21.456Z,67.51
2023-03-02T02:41:16.072Z,67.82
2023-03-02T02:44:02.591Z,68.62
2023-03-02T02:46:48.154Z,68.32
2023-03-02T02:49:40.332Z,68.23
2023-03-02T02:52:28.848Z,68.64
2023-03-02T02:55:19.206Z,67.62
2023-03-02T02:58:21.684Z,68.17
2023-03-02T03:01:08.329Z,67.51
2023-03-02T03:03:58.533Z,67.52
2023-03-02T03:07:13.266Z,68.52
2023-03-02T03:10:25.812Z,68.53
2023-03-02T03:13:13.107Z,68.80
2023-03-02T03:16:01.591Z,68.82
2023-03-02T03:18:51.552Z,69.04
2023-03-02T03:21:37.842Z,68.51
2023-03-02T03:24:27.022Z,69.24
2023-03-02T03:27:15.737Z,68.73
2023-03-02T03:30:02.247Z,68.19
2023-03-02T03:32:50.837Z,67.92
2023-03-02T03:35:36.999Z,68.43
2023-03-02T03:38:22.938Z,67.96
2023-03-02T03:41:09.097Z,67.28
2023-03-02T03:43:54.978Z,67.62
2023-03-02T03:46:40.433Z,68.27
2023-03-02T03:49:26.456Z,68.16
2023-03-02T03:52:13.679Z,68.77
2023-03-02T03:55:02.013Z,68.44
2023-03-02T03:57:48.678Z,69.57
2023-03-02T04:00:35.432Z,69.16
2023-03-02T04:03:28.068Z,70.52
2023-03-02T04:06:19.231Z,70.57
2023-03-02T04:09:07.233Z,71.58
2023-03-02T04:11:54.838Z,72.33
2023-03-02T04:14:40.734Z,71.65
2023-03-02T04:17:27.745Z,72.29
2023-03-02T04:20:17.881Z,71.95
2023-03-02T04:23:07.865Z,72.04
2023-03-02T04:25:53.669Z,72.94
2023-03-02T04:28:41.809Z,72.63
2023-03-02T04:31:28.382Z,73.83
2023-03-02T04:34:14.842Z,73.73
2023-03-02T04:37:02.320Z,73.87
2023-03-02T04:39:51.222Z,73.10
2023-03-02T04:42:37.218Z,73.15
2023-03-02T04:45:22.933Z,73.97
2023-03-02T04:48:08.372Z,73.64
2023-03-02T04:50:53.890Z,73.94
2023-03-02T04:53:39.591Z,73.95
2023-03-02T04:56:25.988Z,73.69
2023-03-02T04:59:11.642Z,73.32
2023-03-02T05:02:00.795Z,73.82
2023-03-02T05:04:46.395Z,73.83
2023-03-02T05:07:31.918Z,73.91
2023-03-02T05:10:18.324Z,73.28
2023-03-02T05:13:05.748Z,73.91
2023-03-02T05:15:51.913Z,73.18
2023-03-02T05:18:37.277Z,73.00
2023-03-02T05:21:22.979Z,72.65
2023-03-02T05:24:08.479Z,72.36
2023-03-02T05:26:54.004Z,72.78
2023-03-02T05:29:39.379Z,72.28
2023-03-02T05:32:25.035Z,72.21
2023-03-02T05:35:10.860Z,72.28
2023-03-02T05:37:56.606Z,72.21
2023-03-02T05:40:42.641Z,72.54
2023-03-02T05:43:28.221Z,72.86
2023-03-02T05:46:13.903Z,72.71
2023-03-02T05:48:59.048Z,72.63
2023-03-02T05:51:44.632Z,72.97
2023-03-02T05:54:30.184Z,73.67
2023-03-02T05:57:15.503Z,73.46
2023-03-02T06:00:01.046Z,74.14
2023-03-02T06:02:46.631Z,74.05
2023-03-02T06:05:32.739Z,74.58
2023-03-02T06:08:19.940Z,75.19
2023-03-02T06:11:05.298Z,75.25
2023-03-02T06:13:50.853Z,75.85
2023-03-02T06:16:47.493Z,75.71
2023-03-02T06:19:58.905Z,75.24
2023-03-02T06:22:47.130Z,75.19
2023-03-02T06:25:33.062Z,75.25
2023-03-02T06:28:20.159Z,74.07
2023-03-02T06:31:05.632Z,73.42
2023-03-02T06:33:51.297Z,73.00
2023-03-02T06:36:40.052Z,72.38
2023-03-02T06:39:25.776Z,71.59
2023-03-02T06:42:11.099Z,70.75
2023-03-02T06:44:56.774Z,70.22
2023-03-02T06:47:42.177Z,69.11
2023-03-02T06:50:28.695Z,68.98
2023-03-02T06:53:17.617Z,67.82
2023-03-02T06:56:03.658Z,67.86
2023-03-02T06:58:49.168Z,67.15
2023-03-02T07:01:36.310Z,66.28
2023-03-02T07:04:21.921Z,66.39
2023-03-02T07:07:08.492Z,65.92
2023-03-02T07:09:54.320Z,66.82
2023-03-02T07:12:41.210Z,66.09
2023-03-02T07:15:26.603Z,65.84
2023-03-02T07:18:12.425Z,66.11
2023-03-02T07:20:58.122Z,65.93
2023-03-02T07:23:43.748Z,65.89
2023-03-02T07:26:29.128Z,66.32
2023-03-02T07:29:14.493Z,66.10
2023-03-02T07:32:00.074Z,66.30
2023-03-02T07:34:45.623Z,65.97
2023-03-02T07:37:30.975Z,65.89
2023-03-02T07:40:17.083Z,66.32
2023-03-02T07:43:02.473Z,66.20
2023-03-02T07:45:48.081Z,65.82
2023-03-02T07:48:33.981Z,65.14
2023-03-02T07:51:26.141Z,66.14
2023-03-02T07:54:11.597Z,65.42
2023-03-02T07:56:58.084Z,65.72
2023-03-02T07:59:44.646Z,66.13
2023-03-02T08:02:30.931Z,66.05
2023-03-02T08:05:22.261Z,65.37
2023-03-02T08:08:08.044Z,66.20
2023-03-02T08:10:53.672Z,67.19
2023-03-02T08:13:39.904Z,67.23
2023-03-02T08:16:26.787Z,66.34
2023-03-02T08:19:12.875Z,65.96
2023-03-02T08:21:58.756Z,67.31
2023-03-02T08:24:48.013Z,66.50
2023-03-02T08:27:34.353Z,65.88
2023-03-02T08:30:26.047Z,65.84
2023-03-02T08:33:13.572Z,66.03
2023-03-02T08:36:05.351Z,65.99
2023-03-02T08:38:54.172Z,66.12
2023-03-02T08:41:39.722Z,65.86
2023-03-02T08:44:25.003Z,65.36
2023-03-02T08:47:11.439Z,65.70
2023-03-02T08:49:57.353Z,65.45
2023-03-02T08:52:43.687Z,64.65
2023-03-02T08:55:30.710Z,65.14
2023-03-02T08:58:16.023Z,65.84
2023-03-02T09:01:01.686Z,65.67
2023-03-02T09:03:47.544Z,65.05
2023-03-02T09:06:44.273Z,64.72
2023-03-02T09:09:29.721Z,64.30
2023-03-02T09:12:15.467Z,64.31
2023-03-02T09:15:01.630Z,65.06
2023-03-02T09:17:47.153Z,65.27
2023-03-02T09:20:33.972Z,64.81
2023-03-02T09:23:20.592Z,65.33
2023-03-02T09:26:06.127Z,64.34
2023-03-02T09:28:51.580Z,64.16
2023-03-02T09:31:38.038Z,64.50
2023-03-02T09:34:23.990Z,63.85
2023-03-02T09:37:09.925Z,64.47
2023-03-02T09:39:55.520Z,63.72
2023-03-02T09:43:05.831Z,63.10
2023-03-02T09:45:56.183Z,62.84
2023-03-02T09:49:18.912Z,61.90
2023-03-02T09:52:07.589Z,61.90
2023-03-02T09:54:53.429Z,60.74
2023-03-02T09:57:39.945Z,60.57
2023-03-02T10:00:36.686Z,59.90
2023-03-02T10:03:32.382Z,60.27
2023-03-02T10:06:19.735Z,59.71
2023-03-02T10:09:05.357Z,59.58
2023-03-02T10:12:08.197Z,59.65
2023-03-02T10:15:04.127Z,59.57
2023-03-02T10:18:02.213Z,59.32
2023-03-02T10:20:53.801Z,59.02
2023-03-02T10:23:42.572Z,58.35
2023-03-02T10:26:40.718Z,58.43
2023-03-02T10:29:53.442Z,59.04
2023-03-02T10:32:46.063Z,57.71
2023-03-02T10:35:32.530Z,57.67
2023-03-02T10:38:24.375Z,57.73
2023-03-02T10:41:18.977Z,56.66
2023-03-02T10:44:08.184Z,57.13
2023-03-02T10:46:54.273Z,58.31
2023-03-02T10:49:43.584Z,59.61
2023-03-02T10:52:34.921Z,56.95
2023-03-02T10:55:21.487Z,53.61
2023-03-02T10:58:34.955Z,54.13
2023-03-02T11:01:21.739Z,53.87
2023-03-02T11:04:15.022Z,52.65
2023-03-02T11:07:31.973Z,52.42
2023-03-02T11:10:29.991Z,53.28
2023-03-02T11:13:29.828Z,52.15
2023-03-02T11:16:18.624Z,52.36
2023-03-02T11:19:12.095Z,52.51
2023-03-02T11:22:03.226Z,51.01
2023-03-02T11:24:55.139Z,52.33
2023-03-02T11:27:44.232Z,52.81
2023-03-02T11:30:34.183Z,52.07
2023-03-02T11:33:29.945Z,52.34
2023-03-02T11:36:20.756Z,53.06
2023-03-02T11:39:14.884Z,51.91
2023-03-02T11:42:00.338Z,51.57
2023-03-02T11:44:50.307Z,52.08
2023-03-02T11:47:37.799Z,51.30
2023-03-02T11:50:23.703Z,51.32
2023-03-02T11:53:14.867Z,52.29
2023-03-02T11:56:00.497Z,52.41
2023-03-02T11:58:52.995Z,52.56
2023-03-02T12:01:40.328Z,52.12
2023-03-02T12:04:28.968Z,52.23
2023-03-02T12:07:19.403Z,51.30
2023-03-02T12:10:28.582Z,52.40
2023-03-02T12:13:20.080Z,50.45
2023-03-02T12:16:20.568Z,50.50
2023-03-02T12:19:26.293Z,50.40
2023-03-02T12:22:14.609Z,51.21
2023-03-02T12:25:20.290Z,50.17
2023-03-02T12:28:06.026Z,49.22
2023-03-02T12:31:08.402Z,49.17
2023-03-02T12:33:54.098Z,49.29
2023-03-02T12:36:44.063Z,50.08
2023-03-02T12:40:03.358Z,50.25
2023-03-02T12:43:01.674Z,50.39
2023-03-02T12:46:27.994Z,49.96
2023-03-02T12:49:44.146Z,48.86
2023-03-02T12:52:35.508Z,49.08
2023-03-02T12:55:21.139Z,48.73
2023-03-02T12:58:18.784Z,49.44
2023-03-02T13:01:05.939Z,48.40
2023-03-02T13:03:53.601Z,48.80
2023-03-02T13:06:40.198Z,50.18
2023-03-02T13:09:26.543Z,50.49
2023-03-02T13:12:15.253Z,50.90
2023-03-02T13:15:01.179Z,50.77
2023-03-02T13:17:55.555Z,50.26
2023-03-02T13:20:41.185Z,49.88
2023-03-02T13:23:29.175Z,49.84
2023-03-02T13:26:34.598Z,49.63
2023-03-02T13:29:20.736Z,49.17
2023-03-02T13:32:27.010Z,49.17
2023-03-02T13:35:24.381Z,49.11
2023-03-02T13:38:18.460Z,49.09
2023-03-02T13:41:04.047Z,49.32
2023-03-02T13:43:49.838Z,48.70
2023-03-02T13:46:39.199Z,48.75
2023-03-02T13:49:29.444Z,48.60
2023-03-02T13:52:29.777Z,48.60
2023-03-02T13:55:17.623Z,49.26
2023-03-02T13:58:03.411Z,50.63
2023-03-02T14:00:50.153Z,50.54
2023-03-02T14:03:36.042Z,50.32
2023-03-02T14:06:21.571Z,50.22
2023-03-02T14:09:07.044Z,49.42
2023-03-02T14:11:55.431Z,49.30
2023-03-02T14:14:41.302Z,49.27
2023-03-02T14:17:28.107Z,49.65
2023-03-02T14:20:19.631Z,49.59
2023-03-02T14:23:06.986Z,49.04
2023-03-02T14:25:55.299Z,49.34
2023-03-02T14:28:40.901Z,50.25
2023-03-02T14:31:27.467Z,49.94
2023-03-02T14:34:18.228Z,49.81
2023-03-02T14:37:07.069Z,49.87
2023-03-02T14:39:55.624Z,49.54
2023-03-02T14:42:41.721Z,49.46
2023-03-02T14:45:29.270Z,49.21
2023-03-02T14:48:16.101Z,49.62
2023-03-02T14:51:04.202Z,50.23
2023-03-02T14:53:52.615Z,49.37
2023-03-02T14:56:50.181Z,49.82
2023-03-02T14:59:35.970Z,50.27
2023-03-02T15:02:25.982Z,50.43
2023-03-02T15:05:12.015Z,49.69
2023-03-02T15:07:58.758Z,49.65
2023-03-02T15:10:46.785Z,49.80
2023-03-02T15:13:32.526Z,49.92
2023-03-02T15:16:18.224Z,50.08
2023-03-02T15:19:03.918Z,50.13
2023-03-02T15:21:49.661Z,50.54
2023-03-02T15:24:35.453Z,50.21
2023-03-02T15:27:23.074Z,50.90
2023-03-02T15:30:09.362Z,51.77
2023-03-02T15:32:54.854Z,53.17
2023-03-02T15:35:40.971Z,53.70
2023-03-02T15:38:26.456Z,54.16
2023-03-02T15:41:13.791Z,54.47
2023-03-02T15:43:59.289Z,55.52
2023-03-02T15:46:44.936Z,55.79
2023-03-02T15:49:32.802Z,56.45
2023-03-02T15:52:20.121Z,56.31
2023-03-02T15:55:05.560Z,57.10
2023-03-02T15:57:51.497Z,57.67
2023-03-02T16:00:37.939Z,58.15
2023-03-02T16:03:24.926Z,58.52
2023-03-02T16:06:10.330Z,58.46
2023-03-02T16:08:55.949Z,59.25
2023-03-02T16:11:41.659Z,58.68
2023-03-02T16:14:27.175Z,57.94
2023-03-02T16:17:12.734Z,58.38
2023-03-02T16:19:58.252Z,58.96
2023-03-02T16:23:01.769Z,59.00
2023-03-02T16:25:51.085Z,58.99
2023-03-02T16:28:37.516Z,58.64
2023-03-02T16:31:26.903Z,58.93
2023-03-02T16:34:12.942Z,58.82
2023-03-02T16:37:00.331Z,59.04
2023-03-02T16:39:45.835Z,59.23
2023-03-02T16:42:31.644Z,59.01
2023-03-02T16:45:18.712Z,59.59
2023-03-02T16:48:05.620Z,59.79
2023-03-02T16:51:00.126Z,60.18
2023-03-02T16:53:46.011Z,59.44
2023-03-02T16:56:31.395Z,59.45
2023-03-02T16:59:17.266Z,59.50
2023-03-02T17:02:02.925Z,59.80
2023-03-02T17:04:48.551Z,60.00
2023-03-02T17:07:34.110Z,60.75
2023-03-02T17:10:21.883Z,60.97
2023-03-02T17:13:08.212Z,61.81
2023-03-02T17:15:53.867Z,62.28
2023-03-02T17:18:41.031Z,62.95
2023-03-02T17:21:27.051Z,63.06
2023-03-02T17:24:12.852Z,63.60
2023-03-02T17:26:58.697Z,63.55
2023-03-02T17:29:44.496Z,63.91
2023-03-02T17:32:30.083Z,64.47
2023-03-02T17:35:16.696Z,64.33
2023-03-02T17:38:03.045Z,64.87
2023-03-02T17:40:48.705Z,64.93
2023-03-02T17:43:38.018Z,65.15
2023-03-02T17:46:26.805Z,65.55
2023-03-02T17:49:13.315Z,66.10
2023-03-02T17:51:58.864Z,66.05
2023-03-02T17:54:44.929Z,66.39
2023-03-02T17:57:30.678Z,66.36
2023-03-02T18:00:18.926Z,66.62
2023-03-02T18:03:06.902Z,66.09
2023-03-02T18:05:53.139Z,66.13
2023-03-02T18:08:38.934Z,66.11
2023-03-02T18:11:25.602Z,66.06
2023-03-02T18:14:16.823Z,66.07
2023-03-02T18:17:05.027Z,66.00
2023-03-02T18:19:50.758Z,65.67
2023-03-02T18:22:36.187Z,65.57
2023-03-02T18:25:21.792Z,65.45
2023-03-02T18:28:07.339Z,65.08
2023-03-02T18:30:52.788Z,64.73
2023-03-02T18:33:38.688Z,65.05
2023-03-02T18:36:24.392Z,65.61
2023-03-02T18:39:10.672Z,65.82
2023-03-02T18:41:57.057Z,65.79
2023-03-02T18:44:44.219Z,65.86
2023-03-02T18:47:37.693Z,65.75
2023-03-02T18:50:24.150Z,65.72
2023-03-02T18:53:12.776Z,65.95
2023-03-02T18:55:59.745Z,66.90
2023-03-02T18:58:45.852Z,67.34
2023-03-02T19:01:32.103Z,67.57
2023-03-02T19:04:17.517Z,67.62
2023-03-02T19:07:04.424Z,67.97
2023-03-02T19:09:54.751Z,67.58
2023-03-02T19:13:12.955Z,67.31
2023-03-02T19:16:00.838Z,67.39
2023-03-02T19:18:46.263Z,67.04
2023-03-02T19:21:32.391Z,67.15
2023-03-02T19:24:17.894Z,67.27
2023-03-02T19:27:04.231Z,67.50
2023-03-02T19:29:50.406Z,67.64
2023-03-02T19:32:37.315Z,67.28
2023-03-02T19:35:26.499Z,67.98
2023-03-02T19:38:12.825Z,68.30
2023-03-02T19:41:00.838Z,68.24
2023-03-02T19:43:46.540Z,67.65
2023-03-02T19:46:32.241Z,66.98
2023-03-02T19:49:18.254Z,67.38
2023-03-02T19:52:05.283Z,66.90
2023-03-02T19:54:50.939Z,67.26
2023-03-02T19:57:37.691Z,66.99
2023-03-02T20:00:23.950Z,67.09
2023-03-02T20:03:09.909Z,67.03
2023-03-02T20:05:58.908Z,66.83
2023-03-02T20:08:48.260Z,67.29
2023-03-02T20:11:34.739Z,67.52
2023-03-02T20:14:33.463Z,67.92
2023-03-02T20:17:19.865Z,68.05
2023-03-02T20:20:08.249Z,68.21
2023-03-02T20:22:53.985Z,68.71
2023-03-02T20:25:39.416Z,69.01
2023-03-02T20:28:25.542Z,68.76
2023-03-02T20:31:13.146Z,68.95
2023-03-02T20:33:59.272Z,68.27
2023-03-02T20:36:45.835Z,68.51
2023-03-02T20:39:35.443Z,68.52
2023-03-02T20:42:21.540Z,68.05
2023-03-02T20:45:09.304Z,68.26
2023-03-02T20:47:57.147Z,68.35
2023-03-02T20:50:43.232Z,68.42
2023-03-02T20:53:29.023Z,68.43
2023-03-02T20:56:18.021Z,68.56
2023-03-02T20:59:04.252Z,68.12
2023-03-02T21:01:51.050Z,67.53
2023-03-02T21:04:36.586Z,67.36
2023-03-02T21:07:22.028Z,67.15
2023-03-02T21:10:09.746Z,67.28
2023-03-02T21:12:55.587Z,66.52
2023-03-02T21:15:41.207Z,67.22
2023-03-02T21:18:27.341Z,67.21
2023-03-02T21:21:13.454Z,66.83
2023-03-02T21:24:00.267Z,66.97
2023-03-02T21:26:48.040Z,67.14
2023-03-02T21:29:33.712Z,67.48
2023-03-02T21:32:19.265Z,67.28
2023-03-02T21:35:04.889Z,67.53
2023-03-02T21:37:53.716Z,67.24
2023-03-02T21:40:45.805Z,67.50
2023-03-02T21:43:31.401Z,67.45
2023-03-02T21:46:21.866Z,67.51
2023-03-02T21:49:07.602Z,67.49
2023-03-02T21:51:53.209Z,68.29
2023-03-02T21:54:38.702Z,67.61
2023-03-02T21:57:24.285Z,68.04
2023-03-02T22:00:18.487Z,68.13
2023-03-02T22:03:04.201Z,67.98
2023-03-02T22:05:49.988Z,67.96
2023-03-02T22:08:37.513Z,68.47
2023-03-02T22:11:25.666Z,68.11
2023-03-02T22:14:13.808Z,68.38
2023-03-02T22:16:59.458Z,68.11
2023-03-02T22:19:45.670Z,67.99
2023-03-02T22:22:31.484Z,67.82
2023-03-02T22:25:18.671Z,67.42
2023-03-02T22:28:22.598Z,67.78
2023-03-02T22:31:18.494Z,67.16
2023-03-02T22:34:13.220Z,67.14
2023-03-02T22:37:09.641Z,67.08
2023-03-02T22:40:00.830Z,67.23
2023-03-02T22:42:46.343Z,67.01
2023-03-02T22:45:31.784Z,67.48
2023-03-02T22:48:20.147Z,67.84
2023-03-02T22:51:22.236Z,67.51
2023-03-02T22:54:18.789Z,67.39
2023-03-02T22:57:04.035Z,67.47
2023-03-02T22:59:49.698Z,67.49
2023-03-02T23:02:40.502Z,67.31
2023-03-02T23:05:34.639Z,66.95
2023-03-02T23:08:30.250Z,66.61
2023-03-02T23:11:18.959Z,66.08
2023-03-02T23:14:29.354Z,66.43
2023-03-02T23:17:20.989Z,67.33
2023-03-02T23:20:10.169Z,67.69
2023-03-02T23:22:56.211Z,67.86
2023-03-02T23:25:41.973Z,67.52
2023-03-02T23:28:27.427Z,66.92
2023-03-02T23:31:13.449Z,67.16
2023-03-02T23:33:59.430Z,67.33
2023-03-02T23:36:44.990Z,67.68
2023-03-02T23:39:30.398Z,67.49
2023-03-02T23:42:15.725Z,67.28
2023-03-02T23:45:01.229Z,68.01
2023-03-02T23:47:46.645Z,67.88
2023-03-02T23:50:32.143Z,68.06
2023-03-02T23:53:17.692Z,68.13
2023-03-02T23:56:03.377Z,67.69
2023-03-02T23:58:48.953Z,67.72
